createdAt,value
2019-02-17T00:00:29.366Z,4.10
2019-02-17T00:02:57.977Z,4.10
2019-02-17T00:05:26.580Z,4.00
2019-02-17T00:07:55.077Z,4.00
2019-02-17T00:10:23.544Z,3.90
2019-02-17T00:12:52.013Z,3.80
2019-02-17T00:15:20.589Z,3.70
2019-02-17T00:17:49.130Z,3.70
2019-02-17T00:20:17.837Z,3.70
2019-02-17T00:22:46.413Z,3.60
2019-02-17T00:25:14.956Z,3.50
2019-02-17T00:27:43.498Z,3.40
2019-02-17T00:30:13.037Z,3.30
2019-02-17T00:32:41.644Z,3.20
2019-02-17T00:35:10.449Z,3.00
2019-02-17T00:37:39.026Z,2.90
2019-02-17T00:40:08.414Z,2.90
2019-02-17T00:42:37.224Z,2.90
2019-02-17T00:45:07.564Z,2.90
2019-02-17T00:47:36.141Z,2.90
2019-02-17T00:50:06.918Z,2.80
2019-02-17T00:52:35.509Z,2.80
2019-02-17T00:55:05.485Z,2.90
2019-02-17T00:57:34.030Z,3.00
2019-02-17T01:00:02.873Z,3.30
2019-02-17T01:02:31.417Z,3.50
2019-02-17T01:04:59.886Z,3.60
2019-02-17T01:07:28.449Z,3.60
2019-02-17T01:09:56.921Z,3.80
2019-02-17T01:12:25.457Z,3.80
2019-02-17T01:14:54.025Z,3.70
2019-02-17T01:17:22.494Z,3.70
2019-02-17T01:19:51.041Z,3.80
2019-02-17T01:22:19.689Z,3.70
2019-02-17T01:24:48.229Z,3.70
2019-02-17T01:27:16.913Z,3.60
2019-02-17T01:29:45.422Z,3.60
2019-02-17T01:32:13.969Z,3.60
2019-02-17T01:34:42.577Z,3.50
2019-02-17T01:37:11.142Z,3.60
2019-02-17T01:39:39.676Z,3.50
2019-02-17T01:42:08.217Z,3.50
2019-02-17T01:44:36.785Z,3.40
2019-02-17T01:47:05.321Z,3.40
2019-02-17T01:49:33.864Z,3.40
2019-02-17T01:52:02.497Z,3.30
2019-02-17T01:54:31.045Z,3.30
2019-02-17T01:56:59.664Z,3.20
2019-02-17T01:59:30.708Z,3.20
2019-02-17T02:01:58.425Z,3.10
2019-02-17T02:04:26.969Z,3.00
2019-02-17T02:06:55.630Z,3.10
2019-02-17T02:09:24.097Z,3.10
2019-02-17T02:11:52.562Z,3.00
2019-02-17T02:14:21.134Z,2.90
2019-02-17T02:16:49.750Z,2.80
2019-02-17T02:19:18.289Z,2.90
2019-02-17T02:21:46.853Z,2.80
2019-02-17T02:24:15.462Z,2.90
2019-02-17T02:26:44.007Z,2.80
2019-02-17T02:29:12.512Z,2.80
2019-02-17T02:31:40.979Z,2.80
2019-02-17T02:34:09.521Z,2.80
2019-02-17T02:36:38.049Z,2.80
2019-02-17T02:39:07.026Z,2.70
2019-02-17T02:41:35.505Z,2.70
2019-02-17T02:44:04.142Z,2.70
2019-02-17T02:46:32.854Z,2.70
2019-02-17T02:49:01.390Z,2.70
2019-02-17T02:51:30.157Z,2.70
2019-02-17T02:53:58.868Z,2.60
2019-02-17T02:56:27.479Z,2.60
2019-02-17T02:58:56.052Z,2.60
2019-02-17T03:01:24.522Z,2.50
2019-02-17T03:03:52.990Z,2.40
2019-02-17T03:06:41.318Z,2.40
2019-02-17T03:09:10.000Z,2.30
2019-02-17T03:11:38.474Z,2.20
2019-02-17T03:14:07.062Z,2.10
2019-02-17T03:16:35.746Z,2.00
2019-02-17T03:19:04.366Z,1.90
2019-02-17T03:21:33.162Z,1.80
2019-02-17T03:24:01.708Z,1.70
2019-02-17T03:26:30.250Z,1.60
2019-02-17T03:28:58.808Z,1.50
2019-02-17T03:31:27.349Z,1.40
2019-02-17T03:33:55.899Z,1.30
2019-02-17T03:36:24.541Z,1.20
2019-02-17T03:38:53.086Z,1.10
2019-02-17T03:41:21.625Z,1.10
2019-02-17T03:43:50.200Z,1.00
2019-02-17T03:46:18.817Z,0.90
2019-02-17T03:48:48.379Z,0.90
2019-02-17T03:51:16.922Z,0.90
2019-02-17T03:53:45.466Z,0.90
2019-02-17T03:56:14.061Z,1.00
2019-02-17T03:58:42.681Z,1.10
2019-02-17T04:01:11.225Z,1.20
2019-02-17T04:03:39.792Z,1.20
2019-02-17T04:06:08.329Z,1.20
2019-02-17T04:08:36.877Z,1.30
2019-02-17T04:11:05.438Z,1.40
2019-02-17T04:13:33.969Z,1.40
2019-02-17T04:16:02.510Z,1.40
2019-02-17T04:18:31.146Z,1.40
2019-02-17T04:20:59.686Z,1.40
2019-02-17T04:23:31.557Z,1.30
2019-02-17T04:25:58.521Z,1.30
2019-02-17T04:28:26.989Z,1.20
2019-02-17T04:30:56.710Z,1.20
2019-02-17T04:33:25.353Z,1.10
2019-02-17T04:35:53.894Z,1.10
2019-02-17T04:38:22.439Z,1.10
2019-02-17T04:40:51.159Z,1.20
2019-02-17T04:43:19.691Z,1.10
2019-02-17T04:45:48.238Z,1.10
2019-02-17T04:48:16.975Z,1.10
2019-02-17T04:50:45.522Z,1.00
2019-02-17T04:53:14.060Z,0.90
2019-02-17T04:55:42.597Z,0.80
2019-02-17T04:58:11.070Z,0.80
2019-02-17T05:00:40.745Z,0.70
2019-02-17T05:03:09.573Z,0.60
2019-02-17T05:05:38.190Z,0.60
2019-02-17T05:08:06.733Z,0.50
2019-02-17T05:10:35.235Z,0.50
2019-02-17T05:13:03.847Z,0.50
2019-02-17T05:15:32.399Z,0.60
2019-02-17T05:18:00.961Z,0.50
2019-02-17T05:20:29.501Z,0.60
2019-02-17T05:22:58.050Z,0.50
2019-02-17T05:25:26.648Z,0.50
2019-02-17T05:27:55.118Z,0.50
2019-02-17T05:30:23.661Z,0.50
2019-02-17T05:32:52.375Z,0.50
2019-02-17T05:35:20.923Z,0.50
2019-02-17T05:37:49.464Z,0.60
2019-02-17T05:40:18.037Z,0.60
2019-02-17T05:42:46.518Z,0.60
2019-02-17T05:45:15.065Z,0.70
2019-02-17T05:47:43.707Z,0.70
2019-02-17T05:50:12.390Z,0.60
2019-02-17T05:52:40.929Z,0.60
2019-02-17T05:55:09.768Z,0.60
2019-02-17T05:57:38.238Z,0.50
2019-02-17T06:00:09.885Z,0.50
2019-02-17T06:02:38.465Z,0.50
2019-02-17T06:05:07.983Z,0.40
2019-02-17T06:07:36.518Z,0.40
2019-02-17T06:10:08.235Z,0.40
2019-02-17T06:12:36.778Z,0.40
2019-02-17T06:15:05.588Z,0.30
2019-02-17T06:17:34.169Z,0.30
2019-02-17T06:20:03.181Z,0.30
2019-02-17T06:22:31.728Z,0.30
2019-02-17T06:25:00.231Z,0.30
2019-02-17T06:27:28.769Z,0.30
2019-02-17T06:29:57.241Z,0.30
2019-02-17T06:32:25.821Z,0.30
2019-02-17T06:34:54.290Z,0.30
2019-02-17T06:37:22.837Z,0.30
2019-02-17T06:39:51.476Z,0.30
2019-02-17T06:42:19.950Z,0.40
2019-02-17T06:44:48.426Z,0.40
2019-02-17T06:47:21.445Z,0.50
2019-02-17T06:49:50.005Z,0.50
2019-02-17T06:52:18.536Z,0.60
2019-02-17T06:54:48.669Z,0.70
2019-02-17T06:57:18.777Z,0.80
2019-02-17T06:59:47.246Z,0.90
2019-02-17T07:02:15.788Z,1.00
2019-02-17T07:05:02.030Z,1.10
2019-02-17T07:07:30.965Z,1.20
2019-02-17T07:09:59.434Z,1.30
2019-02-17T07:12:27.969Z,1.30
2019-02-17T07:14:56.637Z,1.40
2019-02-17T07:17:25.106Z,1.40
2019-02-17T07:19:53.652Z,1.60
2019-02-17T07:22:22.229Z,1.70
2019-02-17T07:24:50.770Z,1.90
2019-02-17T07:27:19.317Z,2.20
2019-02-17T07:29:47.825Z,2.40
2019-02-17T07:32:16.293Z,2.60
2019-02-17T07:34:44.912Z,2.80
2019-02-17T07:37:13.480Z,3.00
2019-02-17T07:39:42.021Z,3.10
2019-02-17T07:42:10.490Z,3.30
2019-02-17T07:44:40.499Z,3.50
2019-02-17T07:47:09.104Z,3.60
2019-02-17T07:49:37.794Z,3.80
2019-02-17T07:52:06.525Z,3.90
2019-02-17T07:54:34.996Z,4.00
2019-02-17T07:57:03.609Z,4.10
2019-02-17T07:59:32.186Z,4.20
2019-02-17T08:02:00.732Z,4.20
2019-02-17T08:04:29.200Z,4.30
2019-02-17T08:06:57.732Z,4.40
2019-02-17T08:09:26.201Z,4.40
2019-02-17T08:11:54.818Z,4.50
2019-02-17T08:14:23.398Z,4.60
2019-02-17T08:16:51.943Z,4.70
2019-02-17T08:19:20.553Z,4.80
2019-02-17T08:21:49.127Z,5.00
2019-02-17T08:24:17.734Z,5.00
2019-02-17T08:26:46.344Z,5.10
2019-02-17T08:29:14.859Z,5.20
2019-02-17T08:31:43.540Z,5.30
2019-02-17T08:34:12.004Z,5.30
2019-02-17T08:36:40.514Z,5.30
2019-02-17T08:39:09.131Z,5.30
2019-02-17T08:41:37.673Z,5.30
2019-02-17T08:44:06.183Z,5.40
2019-02-17T08:46:34.729Z,5.40
2019-02-17T08:49:03.377Z,5.50
2019-02-17T08:51:31.921Z,5.60
2019-02-17T08:54:00.401Z,5.70
2019-02-17T08:56:29.042Z,5.90
2019-02-17T08:58:57.581Z,6.00
2019-02-17T09:01:26.050Z,6.10
2019-02-17T09:03:54.634Z,6.20
2019-02-17T09:06:23.177Z,6.30
2019-02-17T09:08:51.648Z,6.30
2019-02-17T09:11:20.241Z,6.30
2019-02-17T09:13:48.861Z,6.40
2019-02-17T09:16:17.405Z,6.50
2019-02-17T09:18:45.898Z,6.60
2019-02-17T09:21:14.441Z,6.80
2019-02-17T09:23:42.909Z,6.80
2019-02-17T09:26:11.404Z,7.00
2019-02-17T09:28:39.949Z,7.00
2019-02-17T09:31:08.489Z,7.00
2019-02-17T09:33:37.066Z,7.10
2019-02-17T09:36:05.534Z,7.10
2019-02-17T09:38:34.013Z,7.10
2019-02-17T09:41:02.710Z,7.20
2019-02-17T09:43:31.205Z,7.20
2019-02-17T09:45:59.755Z,7.20
2019-02-17T09:48:28.329Z,7.30
2019-02-17T09:50:58.461Z,7.40
2019-02-17T09:53:26.934Z,7.50
2019-02-17T09:55:55.638Z,7.60
2019-02-17T09:58:24.117Z,7.70
2019-02-17T10:00:52.661Z,7.80
2019-02-17T10:03:21.168Z,7.80
2019-02-17T10:05:49.713Z,7.90
2019-02-17T10:08:18.191Z,8.00
2019-02-17T10:10:47.033Z,8.10
2019-02-17T10:13:15.513Z,8.20
2019-02-17T10:15:44.048Z,8.30
2019-02-17T10:18:12.553Z,8.50
2019-02-17T10:20:41.101Z,8.60
2019-02-17T10:23:09.714Z,8.60
2019-02-17T10:25:38.293Z,8.80
2019-02-17T10:28:06.838Z,8.90
2019-02-17T10:30:35.381Z,9.00
2019-02-17T10:33:03.960Z,9.10
2019-02-17T10:35:32.573Z,9.20
2019-02-17T10:38:01.121Z,9.40
2019-02-17T10:40:29.618Z,9.40
2019-02-17T10:42:58.162Z,9.50
2019-02-17T10:45:26.841Z,9.50
2019-02-17T10:47:55.345Z,9.60
2019-02-17T10:50:23.984Z,9.60
2019-02-17T10:52:52.453Z,9.70
2019-02-17T10:55:21.015Z,9.80
2019-02-17T10:57:49.661Z,9.80
2019-02-17T11:00:19.682Z,9.90
2019-02-17T11:02:48.294Z,10.00
2019-02-17T11:05:17.046Z,10.10
2019-02-17T11:07:45.666Z,10.20
2019-02-17T11:10:14.895Z,10.20
2019-02-17T11:12:43.638Z,10.30
2019-02-17T11:15:17.269Z,10.30
2019-02-17T11:17:45.889Z,10.40
2019-02-17T11:20:14.606Z,10.40
2019-02-17T11:22:43.297Z,10.50
2019-02-17T11:25:11.977Z,10.50
2019-02-17T11:27:40.622Z,10.60
2019-02-17T11:30:15.004Z,10.60
2019-02-17T11:32:43.623Z,10.70
2019-02-17T11:35:12.298Z,10.80
2019-02-17T11:37:40.911Z,10.80
2019-02-17T11:40:11.398Z,10.80
2019-02-17T11:42:39.985Z,10.90
2019-02-17T11:45:14.583Z,10.90
2019-02-17T11:47:43.205Z,11.00
2019-02-17T11:50:11.930Z,11.10
2019-02-17T11:52:40.558Z,11.10
2019-02-17T11:55:11.478Z,11.10
2019-02-17T11:57:40.138Z,11.10
2019-02-17T12:00:11.993Z,11.10
2019-02-17T12:02:40.530Z,11.10
2019-02-17T12:05:10.146Z,11.20
2019-02-17T12:07:38.760Z,11.30
2019-02-17T12:10:09.777Z,11.20
2019-02-17T12:12:38.278Z,11.20
2019-02-17T12:15:09.169Z,11.20
2019-02-17T12:17:37.714Z,11.20
2019-02-17T12:20:19.731Z,11.30
2019-02-17T12:22:49.930Z,11.30
2019-02-17T12:25:20.345Z,11.40
2019-02-17T12:27:50.510Z,11.40
2019-02-17T12:30:19.791Z,11.40
2019-02-17T12:32:48.409Z,11.30
2019-02-17T12:35:17.061Z,11.40
2019-02-17T12:37:47.278Z,11.40
2019-02-17T12:40:15.800Z,11.40
2019-02-17T12:42:44.313Z,11.50
2019-02-17T12:45:17.935Z,11.60
2019-02-17T12:47:43.915Z,11.60
2019-02-17T12:50:12.926Z,11.50
2019-02-17T12:52:47.307Z,11.50
2019-02-17T12:55:11.866Z,11.50
2019-02-17T12:57:40.445Z,11.50
2019-02-17T13:00:12.265Z,11.50
2019-02-17T13:02:40.738Z,11.60
2019-02-17T13:05:10.059Z,11.60
2019-02-17T13:07:38.607Z,11.60
2019-02-17T13:10:09.584Z,11.60
2019-02-17T13:12:38.189Z,11.60
2019-02-17T13:15:15.156Z,11.60
2019-02-17T13:17:43.802Z,11.70
2019-02-17T13:20:14.483Z,11.70
2019-02-17T13:22:43.093Z,11.60
2019-02-17T13:25:16.342Z,11.60
2019-02-17T13:27:44.814Z,11.50
2019-02-17T13:30:19.550Z,11.60
2019-02-17T13:32:48.225Z,11.50
2019-02-17T13:35:16.844Z,11.50
2019-02-17T13:37:45.385Z,11.40
2019-02-17T13:40:14.416Z,11.40
2019-02-17T13:42:43.040Z,11.40
2019-02-17T13:45:15.397Z,11.40
2019-02-17T13:47:43.969Z,11.40
2019-02-17T13:50:15.058Z,11.40
2019-02-17T13:52:43.530Z,11.40
2019-02-17T13:55:12.442Z,11.40
2019-02-17T13:57:41.050Z,11.40
2019-02-17T14:00:18.338Z,11.40
2019-02-17T14:02:47.028Z,11.40
2019-02-17T14:05:15.695Z,11.50
2019-02-17T14:07:44.337Z,11.50
2019-02-17T14:10:14.017Z,11.40
2019-02-17T14:12:42.557Z,11.30
2019-02-17T14:15:13.763Z,11.20
2019-02-17T14:17:42.306Z,11.20
2019-02-17T14:20:11.245Z,11.20
2019-02-17T14:22:39.968Z,11.20
2019-02-17T14:25:11.096Z,11.20
2019-02-17T14:27:40.138Z,11.20
2019-02-17T14:30:19.331Z,11.20
2019-02-17T14:32:47.997Z,11.30
2019-02-17T14:35:16.534Z,11.20
2019-02-17T14:37:45.132Z,11.20
2019-02-17T14:40:14.119Z,11.10
2019-02-17T14:42:42.661Z,11.10
2019-02-17T14:45:14.308Z,11.00
2019-02-17T14:47:42.782Z,10.90
2019-02-17T14:50:11.978Z,10.80
2019-02-17T14:52:40.615Z,10.80
2019-02-17T14:55:10.494Z,10.70
2019-02-17T14:57:39.110Z,10.60
2019-02-17T15:00:15.418Z,10.50
2019-02-17T15:02:44.034Z,10.40
2019-02-17T15:05:12.820Z,10.30
2019-02-17T15:07:41.537Z,10.20
2019-02-17T15:10:14.153Z,10.10
2019-02-17T15:12:42.630Z,10.00
2019-02-17T15:15:15.773Z,10.00
2019-02-17T15:17:44.389Z,9.90
2019-02-17T15:20:15.734Z,9.80
2019-02-17T15:22:44.375Z,9.70
2019-02-17T15:25:13.058Z,9.60
2019-02-17T15:27:41.738Z,9.50
2019-02-17T15:30:13.230Z,9.40
2019-02-17T15:32:41.842Z,9.40
2019-02-17T15:35:10.529Z,9.30
2019-02-17T15:37:39.944Z,9.10
2019-02-17T15:40:13.553Z,9.00
2019-02-17T15:42:43.192Z,9.00
2019-02-17T15:45:13.123Z,8.80
2019-02-17T15:47:41.740Z,8.70
2019-02-17T15:50:14.176Z,8.60
2019-02-17T15:52:44.002Z,8.50
2019-02-17T15:55:13.786Z,8.30
2019-02-17T15:57:42.405Z,8.20
2019-02-17T16:00:17.005Z,8.00
2019-02-17T16:02:45.695Z,8.00
2019-02-17T16:05:14.312Z,7.90
2019-02-17T16:07:43.021Z,7.70
2019-02-17T16:10:12.839Z,7.60
2019-02-17T16:12:41.445Z,7.60
2019-02-17T16:15:18.995Z,7.50
2019-02-17T16:17:47.615Z,7.40
2019-02-17T16:20:16.225Z,7.20
2019-02-17T16:22:44.716Z,7.10
2019-02-17T16:25:13.560Z,7.00
2019-02-17T16:27:42.105Z,6.80
2019-02-17T16:30:15.959Z,6.70
2019-02-17T16:32:46.058Z,6.60
2019-02-17T16:35:14.682Z,6.40
2019-02-17T16:37:43.408Z,6.40
2019-02-17T16:40:14.661Z,6.20
2019-02-17T16:42:43.208Z,6.20
2019-02-17T16:45:13.218Z,6.00
2019-02-17T16:47:41.936Z,6.00
2019-02-17T16:50:16.153Z,5.80
2019-02-17T16:52:44.717Z,5.70
2019-02-17T16:55:13.337Z,5.70
2019-02-17T16:57:41.909Z,5.60
2019-02-17T17:00:20.334Z,5.50
2019-02-17T17:02:48.949Z,5.40
2019-02-17T17:05:17.498Z,5.30
2019-02-17T17:07:46.228Z,5.20
2019-02-17T17:10:14.917Z,5.10
2019-02-17T17:12:43.530Z,5.00
2019-02-17T17:15:13.285Z,4.90
2019-02-17T17:17:41.831Z,4.90
2019-02-17T17:20:15.046Z,4.80
2019-02-17T17:22:43.697Z,4.70
2019-02-17T17:25:12.618Z,4.60
2019-02-17T17:27:41.480Z,4.60
2019-02-17T17:30:18.126Z,4.50
2019-02-17T17:32:46.812Z,4.40
2019-02-17T17:35:15.363Z,4.30
2019-02-17T17:37:43.942Z,4.30
2019-02-17T17:40:16.558Z,4.20
2019-02-17T17:42:45.186Z,4.10
2019-02-17T17:45:18.994Z,4.10
2019-02-17T17:47:47.545Z,4.00
2019-02-17T17:50:16.733Z,3.90
2019-02-17T17:52:45.303Z,3.90
2019-02-17T17:55:14.493Z,3.80
2019-02-17T17:57:43.292Z,3.80
2019-02-17T18:00:16.517Z,3.70
2019-02-17T18:02:45.194Z,3.70
2019-02-17T18:05:13.910Z,3.60
2019-02-17T18:07:42.569Z,3.50
2019-02-17T18:10:15.768Z,3.50
2019-02-17T18:12:44.393Z,3.40
2019-02-17T18:15:14.606Z,3.40
2019-02-17T18:17:43.148Z,3.30
2019-02-17T18:20:14.570Z,3.20
2019-02-17T18:22:43.234Z,3.20
2019-02-17T18:25:12.823Z,3.20
2019-02-17T18:27:41.432Z,3.10
2019-02-17T18:30:17.180Z,3.10
2019-02-17T18:32:45.914Z,3.00
2019-02-17T18:35:19.819Z,2.90
2019-02-17T18:37:45.034Z,2.90
2019-02-17T18:40:15.899Z,2.90
2019-02-17T18:42:44.584Z,2.90
2019-02-17T18:45:14.102Z,2.80
2019-02-17T18:47:42.637Z,2.80
2019-02-17T18:50:16.260Z,2.80
2019-02-17T18:52:44.914Z,2.70
2019-02-17T18:55:14.002Z,2.60
2019-02-17T18:57:50.261Z,2.60
2019-02-17T19:00:15.846Z,2.50
2019-02-17T19:02:44.475Z,2.50
2019-02-17T19:05:13.160Z,2.40
2019-02-17T19:07:41.805Z,2.40
2019-02-17T19:10:14.668Z,2.40
2019-02-17T19:12:43.281Z,2.30
2019-02-17T19:15:16.545Z,2.30
2019-02-17T19:17:45.089Z,2.20
2019-02-17T19:20:25.618Z,2.20
2019-02-17T19:22:55.163Z,2.20
2019-02-17T19:25:25.251Z,2.30
2019-02-17T19:27:53.892Z,2.30
2019-02-17T19:30:22.507Z,2.50
2019-02-17T19:32:52.699Z,2.60
2019-02-17T19:35:21.344Z,2.60
2019-02-17T19:37:49.881Z,2.60
2019-02-17T19:40:18.497Z,2.60
2019-02-17T19:42:47.075Z,2.50
2019-02-17T19:45:17.647Z,2.40
2019-02-17T19:47:46.174Z,2.40
2019-02-17T19:50:15.330Z,2.30
2019-02-17T19:52:44.009Z,2.40
2019-02-17T19:55:13.125Z,2.50
2019-02-17T19:57:41.692Z,2.50
2019-02-17T20:00:18.266Z,2.60
2019-02-17T20:02:51.518Z,2.90
2019-02-17T20:05:24.597Z,3.20
2019-02-17T20:07:53.154Z,3.50
2019-02-17T20:10:21.802Z,3.60
2019-02-17T20:12:50.345Z,3.70
2019-02-17T20:15:19.162Z,3.80
2019-02-17T20:17:47.741Z,3.80
2019-02-17T20:20:16.217Z,3.80
2019-02-17T20:22:44.689Z,3.70
2019-02-17T20:25:13.344Z,3.60
2019-02-17T20:27:41.888Z,3.40
2019-02-17T20:30:12.645Z,3.30
2019-02-17T20:32:41.146Z,3.20
2019-02-17T20:35:10.233Z,3.10
2019-02-17T20:37:39.345Z,2.90
2019-02-17T20:40:13.733Z,2.80
2019-02-17T20:42:42.317Z,2.80
2019-02-17T20:45:11.685Z,2.70
2019-02-17T20:47:40.187Z,2.60
2019-02-17T20:50:16.245Z,2.50
2019-02-17T20:52:44.908Z,2.50
2019-02-17T20:55:14.417Z,2.40
2019-02-17T20:57:43.077Z,2.30
2019-02-17T21:00:22.703Z,2.30
2019-02-17T21:02:51.490Z,2.20
2019-02-17T21:05:20.188Z,2.10
2019-02-17T21:07:48.878Z,2.00
2019-02-17T21:10:17.603Z,1.90
2019-02-17T21:12:46.226Z,1.90
2019-02-17T21:15:18.013Z,1.80
2019-02-17T21:17:46.735Z,1.80
2019-02-17T21:20:16.521Z,1.70
2019-02-17T21:22:45.236Z,1.60
2019-02-17T21:25:14.488Z,1.60
2019-02-17T21:27:43.028Z,1.60
2019-02-17T21:30:14.582Z,1.60
2019-02-17T21:32:43.233Z,1.60
2019-02-17T21:35:13.624Z,1.60
2019-02-17T21:37:42.304Z,1.60
2019-02-17T21:40:12.036Z,1.60
2019-02-17T21:42:40.725Z,1.60
2019-02-17T21:45:12.077Z,1.60
2019-02-17T21:47:40.687Z,1.60
2019-02-17T21:50:11.172Z,1.60
2019-02-17T21:52:41.752Z,1.60
2019-02-17T21:55:13.791Z,1.60
2019-02-17T21:57:42.477Z,1.60
2019-02-17T22:00:22.940Z,1.60
2019-02-17T22:02:51.558Z,1.70
2019-02-17T22:05:20.107Z,1.70
2019-02-17T22:07:48.680Z,1.90
2019-02-17T22:10:19.128Z,2.20
2019-02-17T22:12:47.716Z,2.50
2019-02-17T22:15:17.792Z,2.60
2019-02-17T22:17:46.345Z,2.80
2019-02-17T22:20:15.029Z,2.90
2019-02-17T22:22:43.538Z,3.00
2019-02-17T22:25:12.429Z,3.10
2019-02-17T22:27:40.973Z,3.20
2019-02-17T22:30:14.336Z,3.30
2019-02-17T22:32:42.814Z,3.30
2019-02-17T22:35:11.498Z,3.30
2019-02-17T22:37:40.103Z,3.30
2019-02-17T22:40:15.051Z,3.40
2019-02-17T22:42:43.674Z,3.50
2019-02-17T22:45:12.915Z,3.50
2019-02-17T22:47:41.605Z,3.50
2019-02-17T22:50:14.009Z,3.60
2019-02-17T22:52:42.833Z,3.70
2019-02-17T22:55:12.412Z,3.70
2019-02-17T22:57:41.060Z,3.70
2019-02-17T23:00:15.697Z,3.80
2019-02-17T23:02:44.424Z,3.80
2019-02-17T23:05:13.313Z,3.70
2019-02-17T23:07:41.961Z,3.70
2019-02-17T23:10:10.781Z,3.70
2019-02-17T23:12:39.326Z,3.70
2019-02-17T23:15:08.473Z,3.70
2019-02-17T23:17:37.369Z,3.80
2019-02-17T23:20:07.490Z,3.70
2019-02-17T23:22:36.149Z,3.70
2019-02-17T23:25:07.193Z,3.70
2019-02-17T23:27:35.749Z,3.70
2019-02-17T23:30:06.169Z,3.80
2019-02-17T23:32:34.640Z,3.80
2019-02-17T23:35:03.185Z,3.90
2019-02-17T23:37:31.841Z,3.90
2019-02-17T23:40:00.458Z,3.90
2019-02-17T23:42:28.933Z,4.00
2019-02-17T23:44:57.585Z,4.00
2019-02-17T23:47:26.125Z,4.00
2019-02-17T23:49:54.605Z,4.00
2019-02-17T23:52:23.283Z,3.90
2019-02-17T23:54:51.828Z,3.90
2019-02-17T23:57:20.301Z,4.00
2019-02-17T23:59:48.949Z,4.10
